Time;durP1;ratioP1;P1;durP2;ratioP2;P2;SDS_P1;SDS_P2;PMS_P1;PMS_P2;Temp;Humidity;BMP_temperature;BMP_pressure;BME280_temperature;BME280_humidity;BME280_pressure;Samples;Min_cycle;Max_cycle;Signal;HPM_P1;HPM_P2
2022/02/07 00:00:43;;;;;;;2.03;1.93;;;1.40;99.90;;;2.09;100.00;96900.84;5203376;28;20240;-67
2022/02/07 00:03:21;;;;;;;2.30;2.20;;;1.20;99.90;;;1.74;100.00;96911.66;5201259;28;20275;-67
2022/02/07 00:05:54;;;;;;;2.10;2.10;;;1.10;99.90;;;1.61;100.00;96911.53;5202534;28;20226;-67
2022/02/07 00:08:28;;;;;;;2.93;2.83;;;1.10;99.90;;;1.61;100.00;96924.13;5200533;28;20747;-66
2022/02/07 00:11:02;;;;;;;2.03;1.93;;;1.00;99.90;;;1.63;100.00;96941.84;5201982;28;20251;-67
2022/02/07 00:13:35;;;;;;;2.40;2.30;;;1.00;99.90;;;1.51;100.00;96956.88;5201948;28;20224;-67
2022/02/07 00:16:08;;;;;;;2.73;2.53;;;0.90;99.90;;;1.54;100.00;96959.66;5204168;28;20223;-67
2022/02/07 00:18:43;;;;;;;2.60;2.50;;;0.90;99.90;;;1.46;100.00;96965.72;5203862;28;20300;-67
2022/02/07 00:21:17;;;;;;;2.40;2.30;;;0.90;99.90;;;1.39;100.00;96953.44;5200183;28;20222;-67
2022/02/07 00:23:52;;;;;;;3.10;2.97;;;0.90;99.90;;;1.41;100.00;96949.41;5201730;28;20674;-66
2022/02/07 00:26:25;;;;;;;3.00;2.83;;;0.90;99.90;;;1.37;100.00;96957.47;5202447;28;20218;-66
2022/02/07 00:28:58;;;;;;;2.10;2.00;;;0.90;99.90;;;1.42;100.00;96921.81;5202115;28;20222;-66
2022/02/07 00:31:33;;;;;;;2.67;2.57;;;0.90;99.90;;;1.41;100.00;96924.25;5201875;28;20216;-66
2022/02/07 00:34:06;;;;;;;2.10;2.10;;;0.90;99.90;;;1.40;100.00;96967.78;5201269;28;20593;-67
2022/02/07 00:36:39;;;;;;;2.67;2.57;;;0.90;99.90;;;1.40;100.00;96965.25;5202656;28;20694;-67
2022/02/07 00:39:21;;;;;;;2.33;2.23;;;0.90;99.90;;;1.48;100.00;96999.47;5201521;28;20221;-67
2022/02/07 00:42:00;;;;;;;4.03;3.73;;;1.00;99.90;;;1.48;100.00;97001.97;5201781;28;20218;-67
2022/02/07 00:44:33;;;;;;;3.93;3.63;;;1.00;99.90;;;1.42;100.00;96993.94;5202103;28;20229;-66
2022/02/07 00:47:09;;;;;;;3.00;2.90;;;1.00;99.90;;;1.52;100.00;96974.66;5201220;28;20218;-66
2022/02/07 00:49:42;;;;;;;3.00;2.90;;;1.10;99.90;;;1.46;100.00;96958.16;5202113;28;20224;-66
2022/02/07 00:52:15;;;;;;;2.90;2.80;;;1.00;99.90;;;1.40;100.00;96973.69;5199607;28;20218;-66
2022/02/07 00:54:50;;;;;;;2.57;2.47;;;1.00;99.90;;;1.38;100.00;96975.22;5202853;28;20222;-65
2022/02/07 00:57:23;;;;;;;2.77;2.67;;;1.00;99.90;;;1.42;100.00;96983.88;5203480;28;20221;-65
2022/02/07 00:59:56;;;;;;;2.57;2.47;;;1.00;99.90;;;1.46;100.00;96990.91;5206698;28;20237;-66
2022/02/07 01:02:29;;;;;;;2.30;2.20;;;1.00;99.90;;;1.52;100.00;96991.41;5203589;28;20226;-66
2022/02/07 01:05:02;;;;;;;3.60;3.40;;;1.10;99.90;;;1.47;100.00;96995.19;5205959;28;20226;-67
2022/02/07 01:07:35;;;;;;;2.80;2.70;;;1.10;99.90;;;1.55;100.00;96984.09;5206318;28;20658;-68
2022/02/07 01:10:10;;;;;;;2.83;2.73;;;1.10;99.90;;;1.62;100.00;97011.47;5203513;28;20260;-68
2022/02/07 01:13:00;;;;;;;2.57;2.47;;;1.10;99.90;;;1.68;100.00;97044.69;5207558;28;20229;-69
2022/02/07 01:15:43;;;;;;;2.87;2.77;;;1.10;99.90;;;1.58;100.00;97045.63;5207583;28;20234;-68
2022/02/07 01:21:41;;;;;;;2.90;2.80;;;1.20;99.90;;;1.70;100.00;97040.66;5205235;28;20592;-68
2022/02/07 01:47:31;;;;;;;2.70;2.60;;;1.40;99.90;;;1.83;100.00;97102.06;5203542;28;20286;-69
2022/02/07 01:53:01;;;;;;;2.47;2.27;;;1.40;99.90;;;1.89;100.00;97123.59;5173887;28;20236;-68
2022/02/07 01:55:38;;;;;;;2.10;2.00;;;1.50;99.90;;;1.94;100.00;97121.41;5206353;28;20233;-68
2022/02/07 01:58:13;;;;;;;2.30;2.20;;;1.50;99.90;;;2.00;100.00;97147.06;5202695;28;20223;-68
2022/02/07 02:00:47;;;;;;;2.60;2.50;;;1.50;99.90;;;1.95;100.00;97155.94;5204581;28;20225;-68
2022/02/07 02:03:21;;;;;;;3.60;2.83;;;1.50;99.90;;;1.94;100.00;97171.78;5204704;28;20270;-68
2022/02/07 02:05:54;;;;;;;3.00;2.80;;;1.50;99.90;;;1.92;100.00;97183.41;5206750;28;20218;-69
2022/02/07 02:08:28;;;;;;;3.07;2.87;;;1.50;99.90;;;1.94;100.00;97200.38;5203449;28;20220;-69
2022/02/07 02:11:01;;;;;;;3.03;2.83;;;1.50;99.90;;;1.93;100.00;97203.69;5205586;28;20223;-69
2022/02/07 02:13:49;;;;;;;3.10;2.90;;;1.50;99.90;;;1.94;100.00;97212.13;5204092;28;20226;-69
2022/02/07 02:16:30;;;;;;;3.07;2.60;;;1.60;99.90;;;1.95;100.00;97217.28;5203362;28;20231;-69
2022/02/07 02:19:43;;;;;;;2.07;1.97;;;1.60;99.90;;;2.01;100.00;97225.31;5204057;28;20231;-69
2022/02/07 02:36:38;;;;;;;2.23;2.03;;;1.70;99.90;;;2.16;100.00;97290.31;5203476;28;20254;-67
2022/02/07 02:47:45;;;;;;;2.30;2.20;;;1.60;99.90;;;2.04;100.00;97325.50;5205226;28;20229;-68
2022/02/07 02:50:28;;;;;;;2.30;2.10;;;1.60;99.90;;;2.04;100.00;97335.59;5204528;28;20228;-68
2022/02/07 02:53:05;;;;;;;2.80;2.50;;;1.60;99.90;;;2.01;100.00;97335.34;5203878;28;20223;-68
2022/02/07 02:55:41;;;;;;;2.40;2.20;;;1.50;99.90;;;2.03;100.00;97343.88;5201102;28;20227;-67
2022/02/07 02:58:19;;;;;;;2.60;2.50;;;1.50;99.90;;;2.04;100.00;97335.59;5201085;28;20224;-68
2022/02/07 03:00:54;;;;;;;3.13;2.90;;;1.60;99.90;;;2.06;100.00;97354.25;5201446;28;20231;-67
2022/02/07 03:03:27;;;;;;;3.63;2.77;;;1.60;99.90;;;2.04;100.00;97350.69;5203059;28;20237;-67
2022/02/07 03:06:00;;;;;;;3.23;3.03;;;1.60;99.90;;;2.06;100.00;97376.00;5201967;28;20247;-67
2022/02/07 03:08:33;;;;;;;2.60;2.40;;;1.60;99.90;;;2.08;100.00;97372.00;5200213;28;20216;-67
2022/02/07 03:11:12;;;;;;;3.77;2.53;;;1.60;99.90;;;2.10;100.00;97378.03;5204275;28;20238;-67
2022/02/07 03:13:49;;;;;;;2.83;2.63;;;1.60;99.90;;;2.14;100.00;97388.47;5205012;28;20236;-67
2022/02/07 03:16:39;;;;;;;4.03;2.83;;;1.60;99.90;;;2.09;100.00;97394.81;5203755;28;20213;-67
2022/02/07 03:19:15;;;;;;;4.47;3.87;;;1.70;99.90;;;2.13;100.00;97404.38;5203785;28;20353;-67
2022/02/07 03:21:48;;;;;;;4.13;3.77;;;1.70;99.90;;;2.18;100.00;97398.06;5202634;28;20226;-67
2022/02/07 03:24:21;;;;;;;3.47;3.27;;;1.70;99.90;;;2.20;100.00;97409.19;5204310;28;20222;-67
2022/02/07 03:26:56;;;;;;;4.10;3.63;;;1.70;99.90;;;2.22;100.00;97417.72;5202551;28;20215;-67
2022/02/07 03:29:29;;;;;;;3.03;2.80;;;1.70;99.90;;;2.20;100.00;97434.38;5202707;28;20225;-67
2022/02/07 03:32:03;;;;;;;2.97;2.73;;;1.70;99.90;;;2.23;100.00;97433.72;5201931;28;20223;-67
2022/02/07 03:34:37;;;;;;;3.30;2.97;;;1.70;99.90;;;2.36;100.00;97443.19;5202526;28;20632;-68
2022/02/07 03:37:10;;;;;;;3.53;2.90;;;1.70;99.90;;;2.30;100.00;97451.13;5203299;28;20216;-67
2022/02/07 03:39:43;;;;;;;4.00;2.90;;;1.70;99.90;;;2.31;100.00;97452.88;5203528;28;20224;-67
2022/02/07 03:42:17;;;;;;;3.60;3.30;;;1.70;99.90;;;2.34;100.00;97469.91;5200519;28;20229;-67
2022/02/07 03:44:50;;;;;;;5.57;3.00;;;1.70;99.90;;;2.35;100.00;97477.63;5200119;28;20226;-67
2022/02/07 03:47:23;;;;;;;3.57;3.00;;;1.70;99.90;;;2.36;100.00;97481.00;5203984;28;20222;-68
2022/02/07 03:49:57;;;;;;;4.10;3.20;;;1.70;99.90;;;2.39;100.00;97476.22;5203987;28;20212;-67
2022/02/07 03:52:30;;;;;;;4.50;3.17;;;1.70;99.90;;;2.65;100.00;97485.91;5202350;28;20221;-67
2022/02/07 03:55:04;;;;;;;4.37;3.03;;;1.80;99.90;;;2.36;100.00;97501.19;5202499;28;20616;-67
2022/02/07 03:57:38;;;;;;;3.07;2.83;;;1.80;99.90;;;2.42;100.00;97502.56;5204288;28;20233;-67
2022/02/07 04:00:14;;;;;;;3.73;3.43;;;1.80;99.90;;;2.47;100.00;97530.69;5201710;28;20229;-67
2022/02/07 04:02:51;;;;;;;3.47;3.17;;;1.90;99.90;;;2.47;100.00;97545.81;5244347;22;20222;-81
2022/02/07 04:05:43;;;;;;;3.17;2.97;;;1.80;99.90;;;2.60;100.00;97548.59;5231206;28;20228;-82
2022/02/07 04:08:17;;;;;;;2.90;2.80;;;1.80;99.90;;;2.44;100.00;97566.63;5223893;28;20235;-82
2022/02/07 04:10:58;;;;;;;2.97;2.63;;;1.80;99.90;;;2.42;100.00;97595.00;5212124;28;20215;-82
2022/02/07 04:13:35;;;;;;;3.40;3.10;;;1.80;99.90;;;2.44;100.00;97601.06;5210263;28;20238;-81
2022/02/07 04:18:53;;;;;;;3.47;3.17;;;1.80;99.90;;;2.34;100.00;97619.56;5159444;28;20227;-69
2022/02/07 04:21:29;;;;;;;3.00;2.90;;;1.70;99.90;;;2.32;100.00;97640.34;5161631;28;20229;-69
2022/02/07 04:24:02;;;;;;;2.60;2.30;;;1.70;99.90;;;2.36;100.00;97653.38;5161446;28;20230;-69
2022/02/07 04:26:35;;;;;;;3.30;3.00;;;1.70;99.90;;;2.29;100.00;97643.53;5161768;28;20594;-69
2022/02/07 04:29:10;;;;;;;3.33;3.03;;;1.70;99.90;;;2.31;100.00;97653.72;5162937;28;20239;-70
2022/02/07 04:31:43;;;;;;;3.87;2.73;;;1.60;99.90;;;2.28;100.00;97659.38;5160407;28;20231;-72
2022/02/07 04:34:16;;;;;;;2.90;2.70;;;1.60;99.90;;;2.28;100.00;97672.00;5162755;28;20309;-68
2022/02/07 04:36:55;;;;;;;3.17;2.90;;;1.60;99.90;;;2.17;100.00;97676.09;5160215;28;20227;-69
2022/02/07 04:39:28;;;;;;;3.07;2.77;;;1.60;99.90;;;2.19;100.00;97686.34;5158052;28;20610;-69
2022/02/07 04:42:05;;;;;;;3.03;2.73;;;1.50;99.90;;;2.10;100.00;97696.50;5162300;28;20224;-69
2022/02/07 04:44:48;;;;;;;3.17;2.87;;;1.50;99.90;;;2.10;100.00;97724.25;5162656;28;20220;-68
2022/02/07 04:47:39;;;;;;;2.97;2.53;;;1.40;99.90;;;2.05;100.00;97737.19;5161412;28;20219;-70
2022/02/07 04:50:28;;;;;;;4.77;2.90;;;1.40;99.90;;;2.07;100.00;97761.78;5165534;28;20316;-69
2022/02/07 04:53:17;;;;;;;4.10;2.87;;;1.40;99.90;;;2.12;100.00;97764.69;5162638;28;20752;-67
2022/02/07 04:56:12;;;;;;;3.80;3.03;;;1.40;99.90;;;2.12;100.00;97767.22;5164668;28;20233;-69
2022/02/07 04:58:57;;;;;;;2.53;2.33;;;1.40;99.90;;;2.22;100.00;97780.75;5160934;28;20229;-69
2022/02/07 05:01:35;;;;;;;2.53;2.33;;;1.50;99.90;;;2.15;100.00;97793.59;5156171;28;20233;-69
2022/02/07 05:04:20;;;;;;;3.10;2.70;;;1.50;99.90;;;2.22;100.00;97798.41;5160494;28;20220;-68
2022/02/07 05:15:24;;;;;;;2.97;2.77;;;1.50;99.90;;;2.12;100.00;97833.66;5161298;28;20227;-68
2022/02/07 05:17:59;;;;;;;2.90;2.70;;;1.50;99.90;;;2.10;100.00;97837.69;5177403;28;20229;-69
2022/02/07 05:20:32;;;;;;;4.13;2.90;;;1.50;99.90;;;2.13;100.00;97845.50;5182157;28;20233;-69
2022/02/07 05:23:06;;;;;;;4.53;3.00;;;1.50;99.90;;;2.18;100.00;97859.41;5180597;28;20608;-70
2022/02/07 05:25:39;;;;;;;2.93;2.73;;;1.50;99.90;;;2.15;100.00;97854.09;5183965;28;20225;-69
2022/02/07 05:28:12;;;;;;;4.97;2.83;;;1.50;99.90;;;2.12;100.00;97855.44;5179532;28;20230;-68
2022/02/07 05:30:45;;;;;;;3.00;2.80;;;1.50;99.90;;;2.11;100.00;97862.13;5181479;28;20221;-68
2022/02/07 05:33:20;;;;;;;2.67;2.47;;;1.50;99.90;;;2.21;100.00;97874.81;5181079;28;20221;-69
2022/02/07 05:35:53;;;;;;;3.13;2.83;;;1.50;99.90;;;2.26;100.00;97882.75;5178122;28;20603;-69
2022/02/07 05:38:26;;;;;;;3.23;2.93;;;1.50;99.90;;;2.34;100.00;97896.06;5179854;28;20225;-69
2022/02/07 05:41:02;;;;;;;3.57;3.27;;;1.60;99.90;;;2.36;100.00;97904.66;5181731;28;20230;-67
2022/02/07 05:43:37;;;;;;;3.93;3.57;;;1.60;99.90;;;2.41;100.00;97916.06;5182287;28;20519;-68
2022/02/07 05:46:10;;;;;;;4.10;3.70;;;1.60;99.90;;;2.37;100.00;97924.06;5178279;28;20284;-68
2022/02/07 05:48:45;;;;;;;3.70;3.30;;;1.60;99.90;;;2.33;100.00;97933.00;5181581;28;20228;-69
2022/02/07 05:51:18;;;;;;;3.63;3.37;;;1.60;99.90;;;2.36;100.00;97927.34;5181447;28;20227;-69
2022/02/07 05:53:51;;;;;;;3.17;2.90;;;1.60;99.90;;;2.35;100.00;97940.72;5185766;28;20229;-68
2022/02/07 05:56:24;;;;;;;3.83;3.43;;;1.70;99.90;;;2.43;100.00;97942.28;5187303;28;20222;-70
2022/02/07 05:58:57;;;;;;;3.90;3.50;;;1.60;99.90;;;2.58;100.00;97955.41;5186232;28;20218;-69
2022/02/07 06:01:34;;;;;;;7.33;3.27;;;1.60;99.90;;;2.52;100.00;97960.78;5186355;28;20595;-70
2022/02/07 06:04:08;;;;;;;3.00;2.80;;;1.70;99.90;;;2.40;100.00;97967.22;5185258;28;20232;-68
2022/02/07 06:06:41;;;;;;;5.50;3.20;;;1.60;99.90;;;2.36;100.00;97970.22;5186286;28;20312;-68
2022/02/07 06:09:14;;;;;;;3.70;3.10;;;1.60;99.90;;;2.33;100.00;97977.53;5179533;28;20224;-69
2022/02/07 06:11:47;;;;;;;3.87;3.57;;;1.60;99.90;;;2.35;100.00;97978.56;5185824;28;20233;-69
2022/02/07 06:14:20;;;;;;;3.07;2.83;;;1.60;99.90;;;2.39;100.00;97984.00;5185493;28;20704;-68
2022/02/07 06:16:54;;;;;;;3.23;2.80;;;1.60;99.90;;;2.53;100.00;97994.44;5180500;28;20233;-69
2022/02/07 06:19:28;;;;;;;4.17;2.83;;;1.70;99.90;;;2.47;100.00;97999.84;5178544;28;20235;-69
2022/02/07 06:22:01;;;;;;;5.70;3.57;;;1.70;99.90;;;2.42;100.00;98009.50;5182909;28;20218;-68
2022/02/07 06:24:34;;;;;;;9.83;6.10;;;1.60;99.90;;;2.31;100.00;98006.75;5185530;28;20234;-69
2022/02/07 06:27:07;;;;;;;9.73;4.87;;;1.50;99.90;;;2.22;100.00;98020.28;5185850;28;20229;-69
2022/02/07 06:29:42;;;;;;;9.20;4.47;;;1.50;99.90;;;2.20;100.00;98028.47;5186006;28;20228;-68
2022/02/07 06:32:15;;;;;;;6.83;4.33;;;1.50;99.90;;;2.23;100.00;98042.25;5185804;28;20219;-68
2022/02/07 06:34:49;;;;;;;4.33;3.33;;;1.50;99.90;;;2.27;100.00;98040.91;5185969;28;20709;-68
2022/02/07 06:37:22;;;;;;;5.20;3.57;;;1.50;99.90;;;2.26;100.00;98044.13;5185046;28;20232;-68
2022/02/07 06:39:55;;;;;;;3.57;3.27;;;1.50;99.90;;;2.27;100.00;98045.06;5186365;28;20233;-68
2022/02/07 06:42:28;;;;;;;4.57;2.93;;;1.50;99.90;;;2.27;100.00;98050.09;5185792;28;20360;-68
2022/02/07 06:45:03;;;;;;;3.77;3.33;;;1.50;99.90;;;2.27;100.00;98053.50;5185234;28;20233;-68
2022/02/07 06:47:36;;;;;;;6.07;3.57;;;1.50;99.90;;;2.31;100.00;98068.16;5183404;28;20223;-69
2022/02/07 06:50:11;;;;;;;8.30;3.23;;;1.50;99.90;;;2.30;100.00;98073.06;5184841;28;20222;-69
2022/02/07 06:52:44;;;;;;;5.67;3.60;;;1.50;99.90;;;2.33;100.00;98063.25;5180671;28;20221;-68
2022/02/07 06:55:17;;;;;;;5.97;3.30;;;1.50;99.90;;;2.38;100.00;98074.66;5184897;28;20223;-68
2022/02/07 06:57:50;;;;;;;6.20;4.30;;;1.50;99.90;;;2.22;100.00;98083.31;5184919;28;20589;-69
2022/02/07 07:00:23;;;;;;;6.70;4.07;;;1.50;99.90;;;2.22;100.00;98088.38;5184520;28;20233;-68
2022/02/07 07:02:56;;;;;;;6.43;4.00;;;1.50;99.90;;;2.24;100.00;98098.63;5185227;28;20233;-69
2022/02/07 07:05:31;;;;;;;4.93;3.27;;;1.40;99.90;;;2.33;100.00;98101.09;5184486;28;20235;-68
2022/02/07 07:08:06;;;;;;;5.77;3.07;;;1.50;99.90;;;2.28;100.00;98117.44;5184572;28;20222;-69
2022/02/07 07:10:39;;;;;;;5.90;3.80;;;1.50;99.90;;;2.28;100.00;98130.91;5184999;28;20217;-69
2022/02/07 07:13:15;;;;;;;6.83;3.20;;;1.50;99.90;;;2.32;100.00;98124.50;5185037;28;20225;-68
2022/02/07 07:15:52;;;;;;;5.93;3.63;;;1.50;99.90;;;2.34;100.00;98131.47;5180352;28;20228;-69
2022/02/07 07:18:25;;;;;;;4.50;4.00;;;1.60;99.90;;;2.43;100.00;98144.06;5184702;28;20222;-69
2022/02/07 07:21:00;;;;;;;5.10;3.70;;;1.60;99.90;;;2.41;100.00;98126.28;5184411;28;20224;-68
2022/02/07 07:23:34;;;;;;;6.33;4.23;;;1.60;99.90;;;2.47;100.00;98143.63;5184252;28;20221;-68
2022/02/07 07:26:08;;;;;;;9.83;4.60;;;1.70;99.90;;;2.44;100.00;98145.84;5185303;28;20221;-68
2022/02/07 07:28:42;;;;;;;6.43;4.03;;;1.70;99.90;;;2.50;100.00;98159.03;5183466;28;20706;-68
2022/02/07 07:31:16;;;;;;;6.30;3.70;;;1.70;99.90;;;2.53;100.00;98151.75;5184611;28;20224;-68
2022/02/07 07:33:52;;;;;;;5.40;3.50;;;1.70;99.90;;;2.61;100.00;98160.91;5184750;28;20225;-67
2022/02/07 07:36:26;;;;;;;9.10;3.50;;;1.70;99.90;;;2.60;100.00;98169.19;5183677;28;20222;-68
2022/02/07 07:39:00;;;;;;;6.60;3.70;;;1.70;99.90;;;2.68;100.00;98174.97;5183225;28;20220;-68
2022/02/07 07:41:33;;;;;;;5.60;3.30;;;1.80;99.90;;;2.70;100.00;98186.09;5182875;28;20327;-70
2022/02/07 07:44:06;;;;;;;7.47;3.63;;;1.80;99.90;;;2.70;100.00;98186.09;5183153;28;20222;-68
2022/02/07 07:46:40;;;;;;;4.83;3.73;;;1.80;99.90;;;2.79;100.00;98191.09;5183829;28;20258;-68
2022/02/07 07:49:17;;;;;;;6.90;3.30;;;1.90;99.90;;;2.77;100.00;98202.69;5178494;28;20708;-69
2022/02/07 07:52:02;;;;;;;3.83;3.53;;;1.90;99.90;;;2.83;100.00;98210.81;5181469;28;20240;-68
2022/02/07 07:54:51;;;;;;;7.77;3.73;;;1.90;99.90;;;2.79;100.00;98207.13;5180481;28;20265;-65
2022/02/07 08:03:08;;;;;;;6.50;3.50;;;1.90;99.90;;;2.84;100.00;98218.53;5180274;28;20734;-68
2022/02/07 08:05:45;;;;;;;4.47;3.30;;;2.00;99.90;;;2.89;100.00;98221.47;5179496;28;20227;-67
2022/02/07 08:08:25;;;;;;;4.13;3.43;;;2.00;99.90;;;2.84;100.00;98227.75;5179383;28;20590;-67
2022/02/07 08:11:03;;;;;;;7.33;3.27;;;2.10;99.90;;;2.88;100.00;98214.66;5183409;28;20697;-66
2022/02/07 08:13:40;;;;;;;4.53;3.47;;;2.00;99.90;;;2.92;100.00;98224.31;5183647;28;20223;-66
2022/02/07 08:16:13;;;;;;;7.40;3.23;;;2.10;99.90;;;2.96;100.00;98223.84;5182573;28;20215;-66
2022/02/07 08:18:46;;;;;;;5.37;3.67;;;2.10;99.90;;;3.03;100.00;98223.63;5184151;28;20223;-66
2022/02/07 08:21:20;;;;;;;5.63;3.47;;;2.20;99.90;;;3.08;100.00;98224.94;5183440;28;20229;-68
2022/02/07 08:23:56;;;;;;;4.80;3.00;;;2.30;99.90;;;3.06;100.00;98234.03;5183509;28;20227;-67
2022/02/07 08:26:30;;;;;;;6.40;3.40;;;2.30;99.90;;;3.15;100.00;98239.03;5183431;28;20269;-65
2022/02/07 08:29:03;;;;;;;6.77;3.17;;;2.30;99.90;;;3.13;100.00;98246.47;5183058;28;20236;-67
2022/02/07 08:31:36;;;;;;;6.03;3.63;;;2.30;99.90;;;3.04;100.00;98258.25;5182461;28;20223;-68
2022/02/07 08:34:10;;;;;;;6.27;3.57;;;2.30;99.90;;;3.01;100.00;98257.97;5183432;28;20677;-68
2022/02/07 08:36:43;;;;;;;7.63;4.07;;;2.40;99.90;;;3.12;100.00;98258.97;5183199;28;20725;-68
2022/02/07 08:39:26;;;;;;;6.73;3.73;;;2.40;99.90;;;3.10;100.00;98270.56;5182698;28;20249;-68
2022/02/07 08:41:59;;;;;;;8.97;3.93;;;2.40;99.90;;;3.27;100.00;98275.50;5182923;28;20235;-67
2022/02/07 08:44:32;;;;;;;7.10;3.60;;;2.50;99.90;;;3.29;100.00;98288.25;5177641;28;20226;-68
2022/02/07 08:47:06;;;;;;;5.60;3.10;;;2.50;99.90;;;3.34;100.00;98297.16;5180985;28;20688;-66
2022/02/07 08:49:39;;;;;;;6.03;3.00;;;2.60;99.90;;;3.30;100.00;98305.22;5183688;28;20219;-67
2022/02/07 08:52:14;;;;;;;6.23;3.20;;;2.50;99.90;;;3.26;99.52;98310.72;5182403;28;20476;-66
2022/02/07 08:54:49;;;;;;;4.60;3.20;;;2.60;99.90;;;3.35;100.00;98315.00;5183526;28;20217;-68
2022/02/07 08:57:28;;;;;;;5.27;3.30;;;2.70;99.90;;;3.48;100.00;98313.59;5182191;28;20226;-68
2022/02/07 09:00:13;;;;;;;8.13;3.80;;;2.80;99.90;;;3.55;99.56;98316.81;5183436;28;20588;-67
2022/02/07 09:05:55;;;;;;;5.40;3.03;;;3.00;99.90;;;3.75;97.02;98322.78;5115975;29;20222;-66
2022/02/07 09:08:50;;;;;;;6.87;3.27;;;3.10;99.90;;;3.85;100.00;98335.50;5172951;28;20226;-67
2022/02/07 09:11:25;;;;;;;6.83;3.40;;;3.10;99.90;;;3.78;96.11;98343.31;5182417;28;20226;-69
2022/02/07 09:14:00;;;;;;;6.27;3.17;;;3.20;99.90;;;4.04;97.70;98354.13;5183073;28;20222;-68
2022/02/07 09:16:33;;;;;;;6.30;3.63;;;3.40;99.90;;;4.26;100.00;98362.00;5178913;28;20242;-68
2022/02/07 09:19:08;;;;;;;7.10;3.20;;;3.50;99.90;;;4.30;99.14;98360.63;5183276;28;20215;-67
2022/02/07 09:21:41;;;;;;;3.57;3.10;;;3.50;99.90;;;4.25;98.80;98356.78;5178783;28;20220;-68
2022/02/07 09:24:18;;;;;;;5.53;3.70;;;3.50;99.90;;;4.40;99.70;98370.81;5182744;28;20227;-67
2022/02/07 09:26:52;;;;;;;7.07;3.50;;;3.50;99.90;;;4.28;96.73;98380.72;5186622;28;20232;-68
2022/02/07 09:29:25;;;;;;;6.83;3.40;;;3.40;99.90;;;4.05;93.43;98377.78;5182771;28;20231;-67
2022/02/07 09:32:00;;;;;;;8.60;3.10;;;3.40;99.90;;;3.91;93.32;98389.16;5186454;28;20228;-67
2022/02/07 09:34:34;;;;;;;4.77;3.30;;;3.30;99.90;;;4.03;98.00;98381.78;5181179;28;20271;-68
2022/02/07 09:37:08;;;;;;;8.23;3.80;;;3.30;99.90;;;4.07;97.60;98384.75;5184963;28;20762;-68
2022/02/07 09:39:41;;;;;;;4.13;3.73;;;3.30;99.90;;;3.98;98.61;98383.94;5185890;28;20219;-68
2022/02/07 09:42:17;;;;;;;5.57;3.00;;;3.30;99.90;;;4.00;98.94;98389.09;5182227;28;20341;-68
2022/02/07 09:44:53;;;;;;;5.97;3.73;;;3.20;99.90;;;3.99;99.07;98390.75;5186420;28;20221;-68
2022/02/07 09:47:26;;;;;;;8.70;3.67;;;3.20;99.90;;;3.98;97.74;98399.09;5186059;28;20234;-66
2022/02/07 09:50:00;;;;;;;7.53;3.70;;;3.20;99.90;;;4.18;98.77;98417.72;5186821;28;20598;-68
2022/02/07 09:52:33;;;;;;;6.03;3.67;;;3.30;99.90;;;4.12;97.78;98412.09;5186601;28;20587;-68
2022/02/07 09:55:08;;;;;;;6.20;3.67;;;3.30;99.90;;;4.03;97.10;98422.25;5186605;28;20608;-68
2022/02/07 09:57:42;;;;;;;6.53;3.93;;;3.40;99.90;;;4.04;97.80;98422.41;5186364;28;20319;-68
2022/02/07 10:00:19;;;;;;;7.63;3.90;;;3.30;99.90;;;4.13;99.14;98444.25;5185841;28;20227;-67
2022/02/07 10:03:06;;;;;;;6.03;4.10;;;3.40;99.90;;;4.15;97.77;98441.09;5200466;22;20226;-66
2022/02/07 10:05:49;;;;;;;6.13;3.67;;;3.40;99.90;;;4.36;99.85;98451.38;5236307;28;20579;-67
2022/02/07 10:08:37;;;;;;;5.47;3.70;;;3.40;99.90;;;4.38;100.00;98459.97;5221253;28;20609;-65
2022/02/07 10:11:28;;;;;;;7.03;4.33;;;3.50;99.90;;;4.35;100.00;98453.03;5232607;28;20224;-68
2022/02/07 10:14:08;;;;;;;5.27;3.70;;;3.50;99.90;;;4.48;100.00;98457.53;5233576;28;20224;-66
2022/02/07 10:16:50;;;;;;;9.03;3.60;;;3.60;99.90;;;4.48;100.00;98462.59;5224576;28;20232;-66
2022/02/07 10:19:32;;;;;;;5.47;3.63;;;3.60;99.90;;;4.40;97.76;98461.91;5222332;28;20569;-66
2022/02/07 10:22:40;;;;;;;6.10;3.23;;;3.50;99.90;;;4.43;100.00;98462.19;5226834;28;20232;-66
2022/02/07 10:40:24;;;;;;;7.83;4.00;;;3.60;99.90;;;4.32;94.35;98500.84;5227608;28;20215;-68
2022/02/07 10:43:30;;;;;;;5.33;3.93;;;3.60;99.90;;;4.34;97.03;98513.59;5217722;28;20222;-66
2022/02/07 10:46:10;;;;;;;5.00;4.50;;;3.50;99.90;;;4.38;96.57;98503.00;5233979;28;20315;-66
2022/02/07 10:48:45;;;;;;;9.30;3.40;;;3.60;99.90;;;4.36;95.80;98522.25;5226192;28;20233;-67
2022/02/07 10:51:23;;;;;;;7.37;4.03;;;3.60;99.90;;;4.24;95.19;98519.47;5219665;28;20219;-67
2022/02/07 10:53:59;;;;;;;7.30;3.90;;;3.60;99.90;;;4.33;97.44;98534.63;5226009;28;20591;-67
2022/02/07 10:56:37;;;;;;;9.60;3.60;;;3.60;99.90;;;4.31;97.15;98531.03;5223080;28;20712;-66
2022/02/07 10:59:14;;;;;;;7.00;3.27;;;3.60;99.90;;;4.42;97.86;98536.34;5225933;28;20215;-67
2022/02/07 11:02:40;;;;;;;8.47;4.27;;;3.70;99.90;;;4.47;96.48;98545.25;5227796;28;20667;-67
2022/02/07 11:05:15;;;;;;;12.67;4.00;;;3.80;99.90;;;4.37;91.74;98536.66;5220217;28;20277;-62
2022/02/07 11:07:54;;;;;;;5.70;3.37;;;3.80;99.90;;;4.59;95.48;98542.94;5224102;28;20259;-66
2022/02/07 11:10:36;;;;;;;7.53;4.10;;;3.70;99.90;;;4.53;94.57;98556.69;5221842;28;20235;-65
2022/02/07 11:16:11;;;;;;;8.30;4.57;;;3.70;99.90;;;4.49;94.04;98560.56;5199786;28;20225;-66
2022/02/07 11:18:59;;;;;;;9.17;4.47;;;3.80;99.90;;;4.47;96.50;98574.72;5225337;28;20227;-67
2022/02/07 11:21:38;;;;;;;5.07;3.43;;;3.70;99.90;;;4.53;97.62;98579.47;5219377;28;20231;-66
2022/02/07 11:24:31;;;;;;;7.30;3.47;;;3.70;99.90;;;4.55;97.15;98595.66;5220776;28;20237;-67
2022/02/07 11:27:40;;;;;;;6.13;3.40;;;3.70;99.90;;;4.50;97.24;98608.81;5224006;28;20228;-67
2022/02/07 11:30:15;;;;;;;6.23;3.97;;;3.70;99.90;;;4.53;97.32;98625.91;5219579;28;20217;-69
2022/02/07 11:32:54;;;;;;;7.10;3.47;;;3.70;99.90;;;4.57;96.44;98622.03;5223340;28;20223;-67
2022/02/07 11:35:32;;;;;;;6.50;3.67;;;3.70;99.90;;;4.69;96.61;98628.19;5220156;28;20718;-67
2022/02/07 11:38:13;;;;;;;6.97;3.60;;;3.80;99.90;;;4.60;93.44;98633.31;5223598;28;20227;-66
2022/02/07 11:41:01;;;;;;;6.40;3.17;;;3.80;99.90;;;4.59;93.15;98635.72;5222809;28;20239;-66
2022/02/07 11:43:36;;;;;;;6.37;3.30;;;3.80;99.90;;;4.48;92.98;98644.84;5226807;28;20232;-67
2022/02/07 11:46:13;;;;;;;4.23;3.83;;;3.80;99.90;;;4.54;96.25;98654.66;5220630;28;20216;-69
2022/02/07 11:48:49;;;;;;;9.70;4.07;;;3.80;99.90;;;4.48;92.62;98668.50;5229514;28;20325;-68
2022/02/07 11:51:27;;;;;;;6.50;3.57;;;3.80;99.90;;;4.56;96.17;98665.81;5222072;28;20216;-67
2022/02/07 11:54:03;;;;;;;8.43;4.27;;;3.80;99.90;;;4.56;92.51;98663.28;5233156;28;20231;-67
2022/02/07 11:56:43;;;;;;;4.17;3.13;;;3.90;99.90;;;4.68;93.18;98683.00;5219499;28;20303;-67
2022/02/07 11:59:28;;;;;;;7.23;2.93;;;3.90;99.90;;;4.66;93.04;98693.75;5222666;28;20424;-68
2022/02/07 12:02:05;;;;;;;5.97;3.37;;;3.90;99.90;;;4.43;86.95;98695.00;5224325;28;20581;-67
2022/02/07 12:04:42;;;;;;;9.70;4.30;;;3.80;99.90;;;4.43;92.49;98702.59;5221995;28;20690;-66
2022/02/07 12:07:30;;;;;;;6.13;3.57;;;3.80;99.90;;;4.51;94.06;98705.88;5225737;28;20219;-67
2022/02/07 12:10:36;;;;;;;5.90;3.40;;;3.80;99.90;;;4.58;95.57;98709.84;5224744;28;20226;-67
2022/02/07 12:13:31;;;;;;;5.53;3.77;;;3.90;99.90;;;4.53;94.05;98706.03;5226135;28;20223;-68
2022/02/07 12:16:11;;;;;;;8.20;4.37;;;3.80;99.90;;;4.59;91.88;98710.00;5223378;28;20252;-67
2022/02/07 12:19:08;;;;;;;7.27;3.90;;;3.90;99.90;;;4.62;93.13;98711.94;5218774;28;20220;-68
2022/02/07 12:21:54;;;;;;;5.47;3.40;;;3.90;99.90;;;4.69;94.37;98710.13;5218890;28;20220;-66
2022/02/07 12:24:56;;;;;;;7.07;3.83;;;4.00;99.90;;;4.68;92.58;98717.59;5218530;28;20262;-68
2022/02/07 12:27:31;;;;;;;3.83;3.47;;;4.00;99.90;;;4.77;95.86;98725.13;5224511;28;20250;-66
2022/02/07 12:30:17;;;;;;;6.73;3.53;;;4.00;99.90;;;4.83;94.70;98713.94;5228722;28;20232;-68
2022/02/07 12:32:51;;;;;;;4.23;3.63;;;4.10;99.90;;;4.92;94.96;98724.94;5221202;28;20220;-68
2022/02/07 12:35:40;;;;;;;7.33;3.50;;;4.10;99.90;;;5.00;94.73;98732.34;5224425;28;20220;-67
2022/02/07 12:38:13;;;;;;;5.93;3.70;;;4.20;99.90;;;4.97;93.62;98732.94;5223029;28;20213;-67
2022/02/07 12:40:48;;;;;;;5.60;3.30;;;4.20;99.90;;;5.10;95.48;98725.75;5223930;28;20224;-68